Puerto Suarez, Bolivia
Current Conditions -  °F | °C
As of 7:00 PM on Tuesday 21 Oct 2014 (Local Time) from SLPS Reporting Station
Clear Clear  
Wind Chill: 81°   Ceiling: Unl
Heat Index: 85°   Visibility: 6mi
Dew Point: 73°   Wind: 0mph
Humidity: 79%   Direction: NA
Pressure: 29.88"   Gusts: NA
Location:  18.95°S, 57.85°W
Report Text: SLPS 212300Z 00000KT 9999 NSC 27/23 Q1012
Loading
Personal Weather Stations






























Interactive Weather Map
Tropical Storm Tracking
New forecast layout! Learn more

10-Day Weather Forecast

Advertisements
Track Severe Weather on mobile